createdAt,value
2022-12-31T00:05:43.712Z,13.2
2022-12-31T00:15:44.558Z,13.2
2022-12-31T00:35:46.026Z,13.2
2022-12-31T00:45:46.351Z,13.1
2022-12-31T00:55:46.907Z,13
2022-12-31T01:05:47.083Z,12.9
2022-12-31T01:15:48.161Z,12.9
2022-12-31T01:25:48.556Z,12.8
2022-12-31T01:35:48.676Z,12.8
2022-12-31T01:45:49.113Z,12.7
2022-12-31T01:55:50.048Z,12.7
2022-12-31T02:05:50.823Z,12.7
2022-12-31T02:15:51.895Z,12.7
2022-12-31T02:25:52.646Z,12.8
2022-12-31T02:45:53.770Z,13.3
2022-12-31T02:55:54.549Z,13.8
2022-12-31T03:05:54.929Z,14.2
2022-12-31T03:15:55.850Z,14.3
2022-12-31T03:25:56.706Z,13.5
2022-12-31T03:35:57.288Z,13.1
2022-12-31T03:45:58.403Z,12.9
2022-12-31T03:55:59.153Z,12.8
2022-12-31T04:05:59.535Z,12.7
2022-12-31T04:16:00.391Z,12.6
2022-12-31T04:26:00.750Z,12.7
2022-12-31T04:36:01.047Z,12.7
2022-12-31T04:46:02.033Z,12.9
2022-12-31T04:56:02.610Z,13.3
2022-12-31T05:06:03.672Z,13.8
2022-12-31T05:16:03.981Z,14.3
2022-12-31T05:36:05.209Z,15.2
2022-12-31T05:56:06.738Z,15.7
2022-12-31T06:06:07.626Z,15.9
2022-12-31T06:16:08.591Z,16
2022-12-31T06:26:09.105Z,16.1
2022-12-31T06:36:09.429Z,16.2
2022-12-31T06:46:09.957Z,16.2
2022-12-31T06:56:10.656Z,16.3
2022-12-31T07:06:11.499Z,16.3
2022-12-31T07:16:12.449Z,16.5
2022-12-31T07:26:12.773Z,16.4
2022-12-31T07:36:13.385Z,16.7
2022-12-31T07:46:14.093Z,16.8
2022-12-31T07:56:14.500Z,16.7
2022-12-31T08:06:15.451Z,16.7
2022-12-31T08:16:16.475Z,16.7
2022-12-31T08:26:16.891Z,16.8
2022-12-31T08:36:17.291Z,16.7
2022-12-31T08:46:17.646Z,16.7
2022-12-31T08:56:18.537Z,16.7
2022-12-31T09:06:18.958Z,16.9
2022-12-31T09:16:19.763Z,17
2022-12-31T09:36:21.782Z,17.2
2022-12-31T09:46:22.636Z,17.1
2022-12-31T09:56:22.949Z,17.1
2022-12-31T10:06:23.525Z,16.9
2022-12-31T10:16:23.914Z,16.9
2022-12-31T10:26:24.839Z,16.9
2022-12-31T10:36:25.524Z,17
2022-12-31T10:46:25.806Z,17.1
2022-12-31T10:56:26.033Z,17.2
2022-12-31T11:16:27.518Z,17.3
2022-12-31T11:26:28.097Z,17.4
2022-12-31T11:36:28.212Z,17.5
2022-12-31T11:46:28.959Z,17.6
2022-12-31T11:56:29.545Z,17.6
2022-12-31T12:06:30.071Z,17.5
2022-12-31T12:16:30.764Z,17.6
2022-12-31T12:26:31.808Z,17.5
2022-12-31T12:36:32.287Z,17.5
2022-12-31T12:46:32.599Z,17.4
2022-12-31T12:56:32.965Z,17.4
2022-12-31T13:06:33.348Z,16.9
2022-12-31T13:26:34.541Z,16.9
2022-12-31T13:36:35.158Z,16.9
2022-12-31T13:46:35.562Z,16.9
2022-12-31T13:56:36.297Z,17
2022-12-31T14:06:36.771Z,17
2022-12-31T14:16:37.479Z,16.9
2022-12-31T14:26:38.486Z,16.7
2022-12-31T14:36:39.130Z,16.5
2022-12-31T14:46:39.424Z,16.6
2022-12-31T14:56:40.107Z,16.8
2022-12-31T15:06:41.086Z,16.8
2022-12-31T15:16:41.839Z,16.7
2022-12-31T15:26:42.812Z,16.7
2022-12-31T15:46:44.999Z,16.2
2022-12-31T16:06:50.419Z,16.1
2022-12-31T16:46:49.005Z,16.3
2022-12-31T17:06:49.685Z,16.4
2022-12-31T17:16:50.319Z,16.5
2022-12-31T17:36:51.587Z,16.6
2022-12-31T17:46:52.201Z,16.5
2022-12-31T18:16:53.721Z,16.5
2022-12-31T18:36:55.368Z,16.4
2022-12-31T18:46:55.851Z,16.2
2022-12-31T19:06:56.960Z,16.1
2022-12-31T19:16:57.503Z,16
2022-12-31T19:26:58.391Z,16.1
2022-12-31T19:56:59.461Z,16
2022-12-31T20:07:00.166Z,16
2022-12-31T20:17:01.378Z,16
2022-12-31T20:27:01.962Z,16
2022-12-31T20:57:03.577Z,16.2
2022-12-31T21:07:04.328Z,16.4
2022-12-31T21:17:04.846Z,16.5
2022-12-31T21:27:05.505Z,16.5
2022-12-31T21:37:06.179Z,16.6
2022-12-31T21:47:34.263Z,16.6
2022-12-31T21:57:06.840Z,16.5
2022-12-31T22:07:07.962Z,16.6
2022-12-31T22:17:08.344Z,16.8
2022-12-31T22:37:35.591Z,16.8
2022-12-31T22:47:09.912Z,16.9
2022-12-31T22:57:13.366Z,16.9
2022-12-31T23:17:29.257Z,17.1
2022-12-31T23:27:12.460Z,17.1
2022-12-31T23:37:13.565Z,17.1
2022-12-31T23:47:14.432Z,17.2
2022-12-31T23:57:14.710Z,17.1
